createdAt,value
2022-07-29T00:00:03.388Z,1016.24
2022-07-29T00:05:10.681Z,1016.20
2022-07-29T00:10:17.867Z,1016.24
2022-07-29T00:15:25.054Z,1016.15
2022-07-29T00:20:32.274Z,1016.09
2022-07-29T00:25:39.550Z,1016.11
2022-07-29T00:30:47.162Z,1016.15
2022-07-29T00:35:54.389Z,1016.04
2022-07-29T00:41:01.650Z,1016.00
2022-07-29T00:46:08.929Z,1016.04
2022-07-29T00:51:16.177Z,1015.96
2022-07-29T00:56:23.415Z,1015.95
2022-07-29T01:01:30.710Z,1016.09
2022-07-29T01:06:37.900Z,1015.94
2022-07-29T01:11:45.126Z,1015.97
2022-07-29T01:16:52.367Z,1015.79
2022-07-29T01:21:59.550Z,1015.86
2022-07-29T01:27:06.719Z,1015.79
2022-07-29T01:32:27.329Z,1015.78
2022-07-29T01:37:21.211Z,1015.68
2022-07-29T01:42:28.445Z,1015.72
2022-07-29T01:47:35.820Z,1015.71
2022-07-29T01:52:42.856Z,1015.62
2022-07-29T01:57:50.055Z,1015.62
2022-07-29T02:02:57.215Z,1015.66
2022-07-29T02:08:04.467Z,1015.59
2022-07-29T02:13:11.720Z,1015.50
2022-07-29T02:18:18.973Z,1015.46
2022-07-29T02:23:26.169Z,1015.37
2022-07-29T02:28:33.358Z,1015.37
2022-07-29T02:33:40.562Z,1015.37
2022-07-29T02:38:47.821Z,1015.33
2022-07-29T02:43:54.988Z,1015.45
2022-07-29T02:49:02.310Z,1015.54
2022-07-29T02:54:09.470Z,1015.48
2022-07-29T02:59:16.657Z,1015.51
2022-07-29T03:04:23.892Z,1015.56
2022-07-29T03:09:31.097Z,1015.53
2022-07-29T03:14:38.313Z,1015.59
2022-07-29T03:19:45.543Z,1015.49
2022-07-29T03:24:55.015Z,1015.51
2022-07-29T03:30:02.175Z,1015.43
2022-07-29T03:35:09.409Z,1015.47
2022-07-29T03:40:16.598Z,1015.51
2022-07-29T03:45:23.828Z,1015.56
2022-07-29T03:50:31.037Z,1015.57
2022-07-29T03:55:38.321Z,1015.57
2022-07-29T04:00:45.520Z,1015.55
2022-07-29T04:05:52.789Z,1015.57
2022-07-29T04:11:00.124Z,1015.59
2022-07-29T04:16:07.489Z,1015.55
2022-07-29T04:21:14.588Z,1015.53
2022-07-29T04:26:21.867Z,1015.45
2022-07-29T04:31:29.103Z,1015.63
2022-07-29T04:36:36.290Z,1015.67
2022-07-29T04:41:43.517Z,1015.73
2022-07-29T04:46:50.752Z,1015.71
2022-07-29T04:51:57.949Z,1015.74
2022-07-29T04:57:05.102Z,1015.75
2022-07-29T05:02:12.399Z,1015.67
2022-07-29T05:07:19.586Z,1015.75
2022-07-29T05:12:26.816Z,1015.79
2022-07-29T05:17:34.069Z,1015.84
2022-07-29T05:22:41.272Z,1015.85
2022-07-29T05:27:48.550Z,1016.10
2022-07-29T05:32:55.853Z,1016.10
2022-07-29T05:38:03.114Z,1016.08
2022-07-29T05:43:10.315Z,1016.19
2022-07-29T05:48:17.501Z,1016.13
2022-07-29T05:53:24.737Z,1015.87
2022-07-29T05:58:31.932Z,1016.02
2022-07-29T06:03:39.140Z,1016.15
2022-07-29T06:08:46.398Z,1016.11
2022-07-29T06:13:53.645Z,1016.21
2022-07-29T06:19:00.886Z,1016.21
2022-07-29T06:24:08.095Z,1015.91
2022-07-29T06:29:15.298Z,1016.16
2022-07-29T06:34:22.516Z,1016.13
2022-07-29T06:39:29.762Z,1015.99
2022-07-29T06:44:37.017Z,1015.89
2022-07-29T06:49:44.227Z,1015.86
2022-07-29T06:54:51.523Z,1015.93
2022-07-29T06:59:58.667Z,1016.15
2022-07-29T07:05:05.864Z,1016.02
2022-07-29T07:10:13.070Z,1016.08
2022-07-29T07:15:20.240Z,1016.09
2022-07-29T07:20:27.409Z,1016.19
2022-07-29T07:25:34.590Z,1016.08
2022-07-29T07:30:41.807Z,1016.07
2022-07-29T07:35:49.048Z,1016.06
2022-07-29T07:40:56.326Z,1016.15
2022-07-29T07:46:03.984Z,1016.21
2022-07-29T07:51:11.161Z,1016.34
2022-07-29T07:56:18.369Z,1016.45
2022-07-29T08:01:25.800Z,1016.68
2022-07-29T08:06:32.798Z,1016.96
2022-07-29T08:11:40.054Z,1016.94
2022-07-29T08:16:47.251Z,1016.91
2022-07-29T08:21:55.143Z,1016.82
2022-07-29T08:27:01.625Z,1016.72
2022-07-29T08:32:08.867Z,1016.84
2022-07-29T08:37:16.041Z,1016.88
2022-07-29T08:42:23.268Z,1016.94
2022-07-29T08:47:30.520Z,1016.88
2022-07-29T08:52:37.751Z,1016.75
2022-07-29T08:57:51.000Z,1016.81
2022-07-29T09:02:52.212Z,1016.92
2022-07-29T09:07:59.405Z,1016.93
2022-07-29T09:13:06.683Z,1016.97
2022-07-29T09:18:20.382Z,1016.94
2022-07-29T09:23:23.017Z,1017.00
2022-07-29T09:28:28.276Z,1017.03
2022-07-29T09:33:35.570Z,1016.91
2022-07-29T09:38:42.708Z,1016.91
2022-07-29T09:43:49.881Z,1016.91
2022-07-29T09:48:57.116Z,1016.86
2022-07-29T09:54:04.282Z,1016.82
2022-07-29T09:59:11.468Z,1016.73
2022-07-29T10:04:18.693Z,1016.78
2022-07-29T10:09:25.935Z,1016.79
2022-07-29T10:14:33.249Z,1016.67
2022-07-29T10:19:40.536Z,1016.54
2022-07-29T10:24:47.854Z,1016.54
2022-07-29T10:29:55.123Z,1016.57
2022-07-29T10:35:02.418Z,1016.51
2022-07-29T10:40:09.659Z,1016.48
2022-07-29T10:45:17.225Z,1016.35
2022-07-29T10:50:25.428Z,1016.29
2022-07-29T10:55:32.619Z,1016.27
2022-07-29T11:00:40.011Z,1016.25
2022-07-29T11:05:47.113Z,1016.22
2022-07-29T11:10:54.355Z,1016.09
2022-07-29T11:16:01.648Z,1016.02
2022-07-29T11:21:08.930Z,1015.94
2022-07-29T11:26:18.778Z,1015.91
2022-07-29T11:31:23.401Z,1015.97
2022-07-29T11:36:30.553Z,1015.91
2022-07-29T11:41:37.762Z,1015.80
2022-07-29T11:46:44.959Z,1015.76
2022-07-29T11:51:52.149Z,1015.67
2022-07-29T11:56:59.341Z,1015.61
2022-07-29T12:02:36.594Z,1015.55
2022-07-29T12:07:15.585Z,1015.55
2022-07-29T12:12:22.028Z,1015.54
2022-07-29T12:17:30.665Z,1015.51
2022-07-29T12:22:36.488Z,1015.50
2022-07-29T12:27:43.752Z,1015.55
2022-07-29T12:32:50.953Z,1015.53
2022-07-29T12:37:58.226Z,1015.53
2022-07-29T12:43:05.421Z,1015.55
2022-07-29T12:48:12.671Z,1015.55
2022-07-29T12:53:19.947Z,1015.58
2022-07-29T12:58:27.166Z,1015.62
2022-07-29T13:03:35.899Z,1015.66
2022-07-29T13:08:41.589Z,1015.69
2022-07-29T13:13:48.841Z,1015.79
2022-07-29T13:18:56.067Z,1015.80
2022-07-29T13:24:03.307Z,1015.95
2022-07-29T13:29:10.631Z,1016.03
2022-07-29T13:34:17.846Z,1016.05
2022-07-29T13:39:25.094Z,1016.14
2022-07-29T13:44:32.351Z,1016.28
2022-07-29T13:49:39.595Z,1016.35
2022-07-29T13:54:46.804Z,1016.35
2022-07-29T13:59:54.653Z,1016.46
2022-07-29T14:05:06.235Z,1016.53
2022-07-29T14:10:08.445Z,1016.63
2022-07-29T14:15:15.626Z,1016.68
2022-07-29T14:20:22.821Z,1016.81
2022-07-29T14:25:30.066Z,1016.92
2022-07-29T14:30:37.281Z,1017.02
2022-07-29T14:35:44.550Z,1017.13
2022-07-29T14:40:51.768Z,1017.22
2022-07-29T14:46:04.042Z,1017.29
2022-07-29T14:51:06.179Z,1017.40
2022-07-29T14:56:35.450Z,1017.43
2022-07-29T15:01:20.761Z,1017.52
2022-07-29T15:06:27.849Z,1017.65
2022-07-29T15:11:38.341Z,1017.70
2022-07-29T15:16:44.007Z,1017.63
2022-07-29T15:21:49.753Z,1017.67
2022-07-29T15:26:56.904Z,1017.74
2022-07-29T15:32:04.158Z,1017.71
2022-07-29T15:37:11.319Z,1017.72
2022-07-29T15:42:18.616Z,1017.74
2022-07-29T15:47:25.858Z,1017.67
2022-07-29T15:52:33.098Z,1017.79
2022-07-29T15:57:40.341Z,1017.69
2022-07-29T16:02:47.551Z,1017.77
2022-07-29T16:07:54.821Z,1017.76
2022-07-29T16:13:02.019Z,1017.83
2022-07-29T16:18:09.302Z,1017.77
2022-07-29T16:23:16.563Z,1017.77
2022-07-29T16:28:23.808Z,1017.82
2022-07-29T16:33:54.665Z,1017.79
2022-07-29T16:38:38.323Z,1017.75
2022-07-29T16:43:45.538Z,1017.81
2022-07-29T16:48:52.973Z,1017.73
2022-07-29T16:54:00.092Z,1017.86
2022-07-29T16:59:07.331Z,1017.90
2022-07-29T17:04:14.577Z,1017.95
2022-07-29T17:09:21.843Z,1017.93
2022-07-29T17:14:29.132Z,1017.99
2022-07-29T17:19:36.435Z,1017.96
2022-07-29T17:24:43.669Z,1017.99
2022-07-29T17:29:50.837Z,1018.01
2022-07-29T17:34:58.018Z,1018.14
2022-07-29T17:40:05.268Z,1018.13
2022-07-29T17:45:12.549Z,1018.07
2022-07-29T17:50:19.745Z,1018.05
2022-07-29T17:55:26.938Z,1018.15
2022-07-29T18:00:34.147Z,1018.21
2022-07-29T18:05:41.386Z,1018.29
2022-07-29T18:10:48.621Z,1018.37
2022-07-29T18:16:00.226Z,1018.43
2022-07-29T18:21:03.123Z,1018.39
2022-07-29T18:26:10.544Z,1018.40
2022-07-29T18:31:17.872Z,1018.52
2022-07-29T18:36:24.987Z,1018.59
2022-07-29T18:41:32.172Z,1018.59
2022-07-29T18:46:39.412Z,1018.54
2022-07-29T18:51:46.533Z,1018.61
2022-07-29T18:56:53.679Z,1018.71
2022-07-29T19:02:01.099Z,1018.70
2022-07-29T19:07:08.135Z,1018.72
2022-07-29T19:12:15.368Z,1018.73
2022-07-29T19:17:22.538Z,1018.75
2022-07-29T19:22:29.748Z,1018.74
2022-07-29T19:27:36.996Z,1018.73
2022-07-29T19:32:44.190Z,1018.74
2022-07-29T19:37:51.424Z,1018.81
2022-07-29T19:42:58.690Z,1018.90
2022-07-29T19:48:05.905Z,1018.90
2022-07-29T19:53:13.137Z,1018.85
2022-07-29T19:58:22.443Z,1018.86
2022-07-29T20:03:27.685Z,1018.80
2022-07-29T20:08:34.938Z,1018.81
2022-07-29T20:13:42.141Z,1018.78
2022-07-29T20:18:49.359Z,1018.81
2022-07-29T20:23:56.616Z,1018.88
2022-07-29T20:29:03.894Z,1018.86
2022-07-29T20:34:11.146Z,1018.91
2022-07-29T20:39:18.331Z,1018.89
2022-07-29T20:44:25.550Z,1018.89
2022-07-29T20:49:32.817Z,1018.79
2022-07-29T20:54:40.069Z,1018.83
2022-07-29T20:59:47.279Z,1018.84
2022-07-29T21:04:54.486Z,1018.81
2022-07-29T21:10:01.758Z,1018.95
2022-07-29T21:15:08.883Z,1018.95
2022-07-29T21:20:16.079Z,1018.98
2022-07-29T21:25:23.252Z,1019.00
2022-07-29T21:30:30.474Z,1018.97
2022-07-29T21:36:06.180Z,1018.92
2022-07-29T21:40:44.851Z,1018.90
2022-07-29T21:45:52.097Z,1018.98
2022-07-29T21:50:59.838Z,1018.94
2022-07-29T21:56:06.499Z,1018.93
2022-07-29T22:01:13.797Z,1018.88
2022-07-29T22:06:20.941Z,1018.91
2022-07-29T22:11:28.179Z,1018.83
2022-07-29T22:16:35.422Z,1018.84
2022-07-29T22:21:42.640Z,1018.81
2022-07-29T22:26:49.869Z,1018.93
2022-07-29T22:31:57.165Z,1018.89
2022-07-29T22:37:04.414Z,1018.92
2022-07-29T22:42:11.749Z,1019.00
2022-07-29T22:47:18.859Z,1018.89
2022-07-29T22:52:26.025Z,1018.92
2022-07-29T22:57:33.250Z,1018.78
2022-07-29T23:02:40.560Z,1018.78
2022-07-29T23:07:47.734Z,1018.81
2022-07-29T23:12:54.914Z,1018.74
2022-07-29T23:18:02.076Z,1018.71
2022-07-29T23:23:09.265Z,1018.71
2022-07-29T23:28:16.467Z,1018.62
2022-07-29T23:33:23.717Z,1018.71
2022-07-29T23:38:30.922Z,1018.74
2022-07-29T23:43:38.231Z,1018.67
2022-07-29T23:48:45.520Z,1018.58
2022-07-29T23:53:53.587Z,1018.57
2022-07-29T23:59:00.005Z,1018.49
